SAL weather

Monseñor Óscar Arnulfo Romero International Airport
San Salvador (San Luis Talpa), La Paz, El Salvador

Public forecast

Using degrees Celsius for public forecast. Weather courtesy of forecast.io.

Current aviation weather report (METAR) for Monseñor Óscar Arnulfo Romero International Airport

Retrieved 2019/11/15 20:50 UTC (1 hour ago):

MSLP 152050Z 23007KT 190V280 9999 6000NE TSRA FEW020 FEW033CB SCT033 30/24 Q1010 A2983 RMK CB E NE NW

Aviation forecast (TAF) for Monseñor Óscar Arnulfo Romero International Airport

Forecast is more than 12 hours old.

Retrieved 2019-11-13 00:15 UTC (3 days ago):

TAF MSLP 122125Z 1300/1324 32004KT 9999 FEW027 SCT070 TX33/1317Z TN22/1310Z FM130600 02013G23KT CAVOK TEMPO 1317/1324 9999 SCT060